sensor_id;sensor_type;location;lat;lon;timestamp;P1;P2;P0
49462;PMS5003;35357;51.722;0.500;2022-10-31T00:01:39;6;5;
49462;PMS5003;35357;51.722;0.500;2022-10-31T00:04:07;4;4;
49462;PMS5003;35357;51.722;0.500;2022-10-31T00:06:39;6;5;
49462;PMS5003;35357;51.722;0.500;2022-10-31T00:09:06;4;3;
49462;PMS5003;35357;51.722;0.500;2022-10-31T00:11:32;4;4;
49462;PMS5003;35357;51.722;0.500;2022-10-31T00:14:00;4;4;
49462;PMS5003;35357;51.722;0.500;2022-10-31T00:16:28;5;5;
49462;PMS5003;35357;51.722;0.500;2022-10-31T00:18:57;8;6;
49462;PMS5003;35357;51.722;0.500;2022-10-31T00:21:25;5;4;
49462;PMS5003;35357;51.722;0.500;2022-10-31T00:23:52;5;4;
49462;PMS5003;35357;51.722;0.500;2022-10-31T00:26:20;5;5;
49462;PMS5003;35357;51.722;0.500;2022-10-31T00:28:47;6;6;
49462;PMS5003;35357;51.722;0.500;2022-10-31T00:31:14;7;6;
49462;PMS5003;35357;51.722;0.500;2022-10-31T00:33:41;5;5;
49462;PMS5003;35357;51.722;0.500;2022-10-31T00:36:11;8;8;
49462;PMS5003;35357;51.722;0.500;2022-10-31T00:38:40;6;5;
49462;PMS5003;35357;51.722;0.500;2022-10-31T00:41:07;5;5;
49462;PMS5003;35357;51.722;0.500;2022-10-31T00:43:35;6;5;
49462;PMS5003;35357;51.722;0.500;2022-10-31T00:46:02;6;5;
49462;PMS5003;35357;51.722;0.500;2022-10-31T00:48:29;4;4;
49462;PMS5003;35357;51.722;0.500;2022-10-31T00:50:57;5;5;
49462;PMS5003;35357;51.722;0.500;2022-10-31T00:53:24;4;4;
49462;PMS5003;35357;51.722;0.500;2022-10-31T00:55:52;5;5;
49462;PMS5003;35357;51.722;0.500;2022-10-31T00:58:20;5;5;
49462;PMS5003;35357;51.722;0.500;2022-10-31T01:00:48;4;4;
49462;PMS5003;35357;51.722;0.500;2022-10-31T01:03:15;4;4;
49462;PMS5003;35357;51.722;0.500;2022-10-31T01:05:42;5;5;
49462;PMS5003;35357;51.722;0.500;2022-10-31T01:08:10;5;5;
49462;PMS5003;35357;51.722;0.500;2022-10-31T01:10:36;4;3;
49462;PMS5003;35357;51.722;0.500;2022-10-31T01:13:03;7;6;
49462;PMS5003;35357;51.722;0.500;2022-10-31T01:15:30;5;5;
49462;PMS5003;35357;51.722;0.500;2022-10-31T01:17:57;7;7;
49462;PMS5003;35357;51.722;0.500;2022-10-31T01:20:24;6;5;
49462;PMS5003;35357;51.722;0.500;2022-10-31T01:22:51;5;4;
49462;PMS5003;35357;51.722;0.500;2022-10-31T01:25:18;7;6;
49462;PMS5003;35357;51.722;0.500;2022-10-31T01:27:45;5;5;
49462;PMS5003;35357;51.722;0.500;2022-10-31T01:30:12;8;7;
49462;PMS5003;35357;51.722;0.500;2022-10-31T01:32:39;10;10;
49462;PMS5003;35357;51.722;0.500;2022-10-31T01:35:05;8;7;
49462;PMS5003;35357;51.722;0.500;2022-10-31T01:37:33;8;8;
49462;PMS5003;35357;51.722;0.500;2022-10-31T01:40:00;5;5;
49462;PMS5003;35357;51.722;0.500;2022-10-31T01:42:28;6;5;
49462;PMS5003;35357;51.722;0.500;2022-10-31T01:44:57;9;9;
49462;PMS5003;35357;51.722;0.500;2022-10-31T01:47:29;7;7;
49462;PMS5003;35357;51.722;0.500;2022-10-31T01:50:06;6;6;
49462;PMS5003;35357;51.722;0.500;2022-10-31T01:52:40;6;6;
49462;PMS5003;35357;51.722;0.500;2022-10-31T01:55:09;10;8;
49462;PMS5003;35357;51.722;0.500;2022-10-31T01:57:41;8;7;
49462;PMS5003;35357;51.722;0.500;2022-10-31T02:00:11;7;6;
49462;PMS5003;35357;51.722;0.500;2022-10-31T02:02:38;5;5;
49462;PMS5003;35357;51.722;0.500;2022-10-31T02:05:07;8;8;
49462;PMS5003;35357;51.722;0.500;2022-10-31T02:07:38;6;6;
49462;PMS5003;35357;51.722;0.500;2022-10-31T02:10:09;7;7;
49462;PMS5003;35357;51.722;0.500;2022-10-31T02:12:37;6;6;
49462;PMS5003;35357;51.722;0.500;2022-10-31T02:15:06;7;7;
49462;PMS5003;35357;51.722;0.500;2022-10-31T02:17:35;7;7;
49462;PMS5003;35357;51.722;0.500;2022-10-31T02:20:05;6;6;
49462;PMS5003;35357;51.722;0.500;2022-10-31T02:22:40;4;4;
49462;PMS5003;35357;51.722;0.500;2022-10-31T02:25:32;5;5;
49462;PMS5003;35357;51.722;0.500;2022-10-31T02:28:23;6;6;
49462;PMS5003;35357;51.722;0.500;2022-10-31T02:31:05;6;6;
49462;PMS5003;35357;51.722;0.500;2022-10-31T02:33:48;8;7;
49462;PMS5003;35357;51.722;0.500;2022-10-31T02:36:20;5;5;
49462;PMS5003;35357;51.722;0.500;2022-10-31T02:38:52;6;6;
49462;PMS5003;35357;51.722;0.500;2022-10-31T02:41:31;8;6;
49462;PMS5003;35357;51.722;0.500;2022-10-31T02:44:07;6;6;
49462;PMS5003;35357;51.722;0.500;2022-10-31T02:46:39;5;5;
49462;PMS5003;35357;51.722;0.500;2022-10-31T02:49:12;8;7;
49462;PMS5003;35357;51.722;0.500;2022-10-31T02:51:48;6;5;
49462;PMS5003;35357;51.722;0.500;2022-10-31T02:54:18;6;5;
49462;PMS5003;35357;51.722;0.500;2022-10-31T02:56:48;5;5;
49462;PMS5003;35357;51.722;0.500;2022-10-31T02:59:20;6;6;
49462;PMS5003;35357;51.722;0.500;2022-10-31T03:01:56;9;9;
49462;PMS5003;35357;51.722;0.500;2022-10-31T03:04:37;6;5;
49462;PMS5003;35357;51.722;0.500;2022-10-31T03:07:20;8;7;
49462;PMS5003;35357;51.722;0.500;2022-10-31T03:09:57;8;8;
49462;PMS5003;35357;51.722;0.500;2022-10-31T03:12:33;6;6;
49462;PMS5003;35357;51.722;0.500;2022-10-31T03:15:08;8;8;
49462;PMS5003;35357;51.722;0.500;2022-10-31T03:17:44;8;8;
49462;PMS5003;35357;51.722;0.500;2022-10-31T03:20:21;7;7;
49462;PMS5003;35357;51.722;0.500;2022-10-31T03:22:54;9;8;
49462;PMS5003;35357;51.722;0.500;2022-10-31T03:25:22;9;9;
49462;PMS5003;35357;51.722;0.500;2022-10-31T03:27:50;11;11;
49462;PMS5003;35357;51.722;0.500;2022-10-31T03:30:18;6;6;
49462;PMS5003;35357;51.722;0.500;2022-10-31T03:32:47;11;11;
49462;PMS5003;35357;51.722;0.500;2022-10-31T03:35:18;7;7;
49462;PMS5003;35357;51.722;0.500;2022-10-31T03:37:48;10;10;
49462;PMS5003;35357;51.722;0.500;2022-10-31T03:40:19;8;8;
49462;PMS5003;35357;51.722;0.500;2022-10-31T03:42:51;8;8;
49462;PMS5003;35357;51.722;0.500;2022-10-31T03:45:21;10;9;
49462;PMS5003;35357;51.722;0.500;2022-10-31T03:47:52;11;11;
49462;PMS5003;35357;51.722;0.500;2022-10-31T03:50:21;7;7;
49462;PMS5003;35357;51.722;0.500;2022-10-31T03:52:54;12;12;
49462;PMS5003;35357;51.722;0.500;2022-10-31T03:55:27;7;7;
49462;PMS5003;35357;51.722;0.500;2022-10-31T03:57:57;8;8;
49462;PMS5003;35357;51.722;0.500;2022-10-31T04:00:28;8;8;
49462;PMS5003;35357;51.722;0.500;2022-10-31T04:03:00;10;9;
49462;PMS5003;35357;51.722;0.500;2022-10-31T04:05:32;11;11;
49462;PMS5003;35357;51.722;0.500;2022-10-31T04:08:01;11;10;
49462;PMS5003;35357;51.722;0.500;2022-10-31T04:10:33;8;8;
49462;PMS5003;35357;51.722;0.500;2022-10-31T04:13:04;8;8;
49462;PMS5003;35357;51.722;0.500;2022-10-31T04:15:35;8;7;
49462;PMS5003;35357;51.722;0.500;2022-10-31T04:18:05;8;7;
49462;PMS5003;35357;51.722;0.500;2022-10-31T04:20:33;10;10;
49462;PMS5003;35357;51.722;0.500;2022-10-31T04:23:01;10;10;
49462;PMS5003;35357;51.722;0.500;2022-10-31T04:25:29;9;8;
49462;PMS5003;35357;51.722;0.500;2022-10-31T04:27:56;10;10;
49462;PMS5003;35357;51.722;0.500;2022-10-31T04:30:23;11;11;
49462;PMS5003;35357;51.722;0.500;2022-10-31T04:32:49;15;13;
49462;PMS5003;35357;51.722;0.500;2022-10-31T04:35:16;10;10;
49462;PMS5003;35357;51.722;0.500;2022-10-31T04:37:43;12;12;
49462;PMS5003;35357;51.722;0.500;2022-10-31T04:40:11;12;10;
49462;PMS5003;35357;51.722;0.500;2022-10-31T04:42:38;14;13;
49462;PMS5003;35357;51.722;0.500;2022-10-31T04:45:05;11;11;
49462;PMS5003;35357;51.722;0.500;2022-10-31T04:47:33;12;10;
49462;PMS5003;35357;51.722;0.500;2022-10-31T04:50:00;11;10;
49462;PMS5003;35357;51.722;0.500;2022-10-31T04:52:28;9;8;
49462;PMS5003;35357;51.722;0.500;2022-10-31T04:54:56;9;9;
49462;PMS5003;35357;51.722;0.500;2022-10-31T04:57:23;8;8;
49462;PMS5003;35357;51.722;0.500;2022-10-31T04:59:50;9;9;
49462;PMS5003;35357;51.722;0.500;2022-10-31T05:02:17;9;9;
49462;PMS5003;35357;51.722;0.500;2022-10-31T05:04:44;7;7;
49462;PMS5003;35357;51.722;0.500;2022-10-31T05:07:11;10;9;
49462;PMS5003;35357;51.722;0.500;2022-10-31T05:09:38;7;7;
49462;PMS5003;35357;51.722;0.500;2022-10-31T05:12:05;9;9;
49462;PMS5003;35357;51.722;0.500;2022-10-31T05:14:32;5;5;
49462;PMS5003;35357;51.722;0.500;2022-10-31T05:16:59;6;6;
49462;PMS5003;35357;51.722;0.500;2022-10-31T05:19:27;6;5;
49462;PMS5003;35357;51.722;0.500;2022-10-31T05:21:53;6;6;
49462;PMS5003;35357;51.722;0.500;2022-10-31T05:24:20;6;6;
49462;PMS5003;35357;51.722;0.500;2022-10-31T05:26:47;8;8;
49462;PMS5003;35357;51.722;0.500;2022-10-31T05:29:15;5;5;
49462;PMS5003;35357;51.722;0.500;2022-10-31T05:31:41;5;5;
49462;PMS5003;35357;51.722;0.500;2022-10-31T05:34:09;10;10;
49462;PMS5003;35357;51.722;0.500;2022-10-31T05:36:36;6;6;
49462;PMS5003;35357;51.722;0.500;2022-10-31T05:39:03;6;6;
49462;PMS5003;35357;51.722;0.500;2022-10-31T05:41:30;6;5;
49462;PMS5003;35357;51.722;0.500;2022-10-31T05:43:57;5;5;
49462;PMS5003;35357;51.722;0.500;2022-10-31T05:46:24;6;4;
49462;PMS5003;35357;51.722;0.500;2022-10-31T05:48:51;5;5;
49462;PMS5003;35357;51.722;0.500;2022-10-31T05:51:18;4;4;
49462;PMS5003;35357;51.722;0.500;2022-10-31T05:53:45;6;5;
49462;PMS5003;35357;51.722;0.500;2022-10-31T05:56:13;5;5;
49462;PMS5003;35357;51.722;0.500;2022-10-31T05:58:40;5;5;
49462;PMS5003;35357;51.722;0.500;2022-10-31T06:01:07;4;3;
49462;PMS5003;35357;51.722;0.500;2022-10-31T06:03:33;6;6;
49462;PMS5003;35357;51.722;0.500;2022-10-31T06:06:01;5;4;
49462;PMS5003;35357;51.722;0.500;2022-10-31T06:08:28;5;4;
49462;PMS5003;35357;51.722;0.500;2022-10-31T06:10:56;5;4;
49462;PMS5003;35357;51.722;0.500;2022-10-31T06:13:22;6;6;
49462;PMS5003;35357;51.722;0.500;2022-10-31T06:15:49;5;5;
49462;PMS5003;35357;51.722;0.500;2022-10-31T06:18:16;6;6;
49462;PMS5003;35357;51.722;0.500;2022-10-31T06:20:43;7;6;
49462;PMS5003;35357;51.722;0.500;2022-10-31T06:23:11;5;4;
49462;PMS5003;35357;51.722;0.500;2022-10-31T06:25:37;4;4;
49462;PMS5003;35357;51.722;0.500;2022-10-31T06:28:04;3;3;
49462;PMS5003;35357;51.722;0.500;2022-10-31T06:30:32;5;5;
49462;PMS5003;35357;51.722;0.500;2022-10-31T06:33:02;5;5;
49462;PMS5003;35357;51.722;0.500;2022-10-31T06:35:30;6;5;
49462;PMS5003;35357;51.722;0.500;2022-10-31T06:37:57;7;6;
49462;PMS5003;35357;51.722;0.500;2022-10-31T06:40:24;8;8;
49462;PMS5003;35357;51.722;0.500;2022-10-31T06:42:59;5;5;
49462;PMS5003;35357;51.722;0.500;2022-10-31T06:45:27;6;6;
49462;PMS5003;35357;51.722;0.500;2022-10-31T06:47:55;5;5;
49462;PMS5003;35357;51.722;0.500;2022-10-31T06:50:23;7;4;
49462;PMS5003;35357;51.722;0.500;2022-10-31T06:52:50;6;5;
49462;PMS5003;35357;51.722;0.500;2022-10-31T06:55:18;5;5;
49462;PMS5003;35357;51.722;0.500;2022-10-31T06:57:48;5;5;
49462;PMS5003;35357;51.722;0.500;2022-10-31T07:00:16;7;7;
49462;PMS5003;35357;51.722;0.500;2022-10-31T07:02:52;5;5;
49462;PMS5003;35357;51.722;0.500;2022-10-31T07:05:20;5;5;
49462;PMS5003;35357;51.722;0.500;2022-10-31T07:07:47;5;5;
49462;PMS5003;35357;51.722;0.500;2022-10-31T07:10:18;4;4;
49462;PMS5003;35357;51.722;0.500;2022-10-31T07:12:45;6;5;
49462;PMS5003;35357;51.722;0.500;2022-10-31T07:15:12;6;6;
49462;PMS5003;35357;51.722;0.500;2022-10-31T07:17:40;7;7;
49462;PMS5003;35357;51.722;0.500;2022-10-31T07:20:07;8;6;
49462;PMS5003;35357;51.722;0.500;2022-10-31T07:22:35;7;7;
49462;PMS5003;35357;51.722;0.500;2022-10-31T07:25:04;5;5;
49462;PMS5003;35357;51.722;0.500;2022-10-31T07:27:34;6;6;
49462;PMS5003;35357;51.722;0.500;2022-10-31T07:30:03;5;4;
49462;PMS5003;35357;51.722;0.500;2022-10-31T07:32:38;8;7;
49462;PMS5003;35357;51.722;0.500;2022-10-31T07:35:06;7;7;
49462;PMS5003;35357;51.722;0.500;2022-10-31T07:37:34;6;6;
49462;PMS5003;35357;51.722;0.500;2022-10-31T07:40:02;8;7;
49462;PMS5003;35357;51.722;0.500;2022-10-31T07:42:34;7;7;
49462;PMS5003;35357;51.722;0.500;2022-10-31T07:45:01;8;7;
49462;PMS5003;35357;51.722;0.500;2022-10-31T07:47:28;7;7;
49462;PMS5003;35357;51.722;0.500;2022-10-31T07:49:56;6;6;
49462;PMS5003;35357;51.722;0.500;2022-10-31T07:52:23;5;5;
49462;PMS5003;35357;51.722;0.500;2022-10-31T07:54:50;8;7;
49462;PMS5003;35357;51.722;0.500;2022-10-31T07:57:16;6;5;
49462;PMS5003;35357;51.722;0.500;2022-10-31T07:59:44;9;9;
49462;PMS5003;35357;51.722;0.500;2022-10-31T08:02:11;10;8;
49462;PMS5003;35357;51.722;0.500;2022-10-31T08:04:37;5;5;
49462;PMS5003;35357;51.722;0.500;2022-10-31T08:07:04;7;7;
49462;PMS5003;35357;51.722;0.500;2022-10-31T08:09:31;6;6;
49462;PMS5003;35357;51.722;0.500;2022-10-31T08:11:58;6;6;
49462;PMS5003;35357;51.722;0.500;2022-10-31T08:14:25;7;7;
49462;PMS5003;35357;51.722;0.500;2022-10-31T08:16:52;8;7;
49462;PMS5003;35357;51.722;0.500;2022-10-31T08:19:19;9;8;
49462;PMS5003;35357;51.722;0.500;2022-10-31T08:21:50;9;8;
49462;PMS5003;35357;51.722;0.500;2022-10-31T08:24:17;8;8;
49462;PMS5003;35357;51.722;0.500;2022-10-31T08:26:44;9;9;
49462;PMS5003;35357;51.722;0.500;2022-10-31T08:29:11;10;10;
49462;PMS5003;35357;51.722;0.500;2022-10-31T08:31:39;8;8;
49462;PMS5003;35357;51.722;0.500;2022-10-31T08:34:07;6;6;
49462;PMS5003;35357;51.722;0.500;2022-10-31T08:36:34;9;9;
49462;PMS5003;35357;51.722;0.500;2022-10-31T08:39:02;10;9;
49462;PMS5003;35357;51.722;0.500;2022-10-31T08:41:28;8;8;
49462;PMS5003;35357;51.722;0.500;2022-10-31T08:43:56;8;8;
49462;PMS5003;35357;51.722;0.500;2022-10-31T08:46:23;7;7;
49462;PMS5003;35357;51.722;0.500;2022-10-31T08:48:50;7;7;
49462;PMS5003;35357;51.722;0.500;2022-10-31T08:51:17;4;4;
49462;PMS5003;35357;51.722;0.500;2022-10-31T08:53:44;8;8;
49462;PMS5003;35357;51.722;0.500;2022-10-31T08:56:11;12;10;
49462;PMS5003;35357;51.722;0.500;2022-10-31T08:58:38;8;7;
49462;PMS5003;35357;51.722;0.500;2022-10-31T09:01:05;8;7;
49462;PMS5003;35357;51.722;0.500;2022-10-31T09:03:32;9;9;
49462;PMS5003;35357;51.722;0.500;2022-10-31T09:05:59;9;9;
49462;PMS5003;35357;51.722;0.500;2022-10-31T09:08:29;6;6;
49462;PMS5003;35357;51.722;0.500;2022-10-31T09:10:57;6;6;
49462;PMS5003;35357;51.722;0.500;2022-10-31T09:13:25;9;8;
49462;PMS5003;35357;51.722;0.500;2022-10-31T09:15:52;7;7;
49462;PMS5003;35357;51.722;0.500;2022-10-31T09:18:20;7;7;
49462;PMS5003;35357;51.722;0.500;2022-10-31T09:20:49;8;8;
49462;PMS5003;35357;51.722;0.500;2022-10-31T09:23:16;7;5;
49462;PMS5003;35357;51.722;0.500;2022-10-31T09:25:45;8;7;
49462;PMS5003;35357;51.722;0.500;2022-10-31T09:28:14;6;6;
49462;PMS5003;35357;51.722;0.500;2022-10-31T09:30:45;7;7;
49462;PMS5003;35357;51.722;0.500;2022-10-31T09:33:13;6;6;
49462;PMS5003;35357;51.722;0.500;2022-10-31T09:35:41;5;5;
49462;PMS5003;35357;51.722;0.500;2022-10-31T09:38:08;7;7;
49462;PMS5003;35357;51.722;0.500;2022-10-31T09:40:37;8;7;
49462;PMS5003;35357;51.722;0.500;2022-10-31T09:43:09;6;6;
49462;PMS5003;35357;51.722;0.500;2022-10-31T09:45:43;6;6;
49462;PMS5003;35357;51.722;0.500;2022-10-31T09:48:21;7;7;
49462;PMS5003;35357;51.722;0.500;2022-10-31T09:51:00;9;8;
49462;PMS5003;35357;51.722;0.500;2022-10-31T09:53:32;7;5;
49462;PMS5003;35357;51.722;0.500;2022-10-31T09:56:05;7;7;
49462;PMS5003;35357;51.722;0.500;2022-10-31T09:58:41;3;3;
49462;PMS5003;35357;51.722;0.500;2022-10-31T10:01:17;4;4;
49462;PMS5003;35357;51.722;0.500;2022-10-31T10:03:55;4;4;
49462;PMS5003;35357;51.722;0.500;2022-10-31T10:06:27;6;6;
49462;PMS5003;35357;51.722;0.500;2022-10-31T10:09:00;7;7;
49462;PMS5003;35357;51.722;0.500;2022-10-31T10:11:31;6;6;
49462;PMS5003;35357;51.722;0.500;2022-10-31T10:14:15;6;6;
49462;PMS5003;35357;51.722;0.500;2022-10-31T10:16:56;8;7;
49462;PMS5003;35357;51.722;0.500;2022-10-31T10:19:41;6;6;
49462;PMS5003;35357;51.722;0.500;2022-10-31T10:22:21;6;6;
49462;PMS5003;35357;51.722;0.500;2022-10-31T10:25:01;6;5;
49462;PMS5003;35357;51.722;0.500;2022-10-31T10:27:46;7;7;
49462;PMS5003;35357;51.722;0.500;2022-10-31T10:30:19;5;5;
49462;PMS5003;35357;51.722;0.500;2022-10-31T10:32:49;7;6;
49462;PMS5003;35357;51.722;0.500;2022-10-31T10:35:22;6;6;
49462;PMS5003;35357;51.722;0.500;2022-10-31T10:37:53;6;6;
49462;PMS5003;35357;51.722;0.500;2022-10-31T10:40:26;8;8;
49462;PMS5003;35357;51.722;0.500;2022-10-31T10:42:56;6;5;
49462;PMS5003;35357;51.722;0.500;2022-10-31T10:45:37;9;8;
49462;PMS5003;35357;51.722;0.500;2022-10-31T10:48:06;5;5;
49462;PMS5003;35357;51.722;0.500;2022-10-31T10:50:41;7;6;
49462;PMS5003;35357;51.722;0.500;2022-10-31T10:53:16;5;5;
49462;PMS5003;35357;51.722;0.500;2022-10-31T10:55:56;6;6;
49462;PMS5003;35357;51.722;0.500;2022-10-31T10:58:30;8;7;
49462;PMS5003;35357;51.722;0.500;2022-10-31T11:00:57;5;5;
49462;PMS5003;35357;51.722;0.500;2022-10-31T11:03:24;9;7;
49462;PMS5003;35357;51.722;0.500;2022-10-31T11:05:52;5;5;
49462;PMS5003;35357;51.722;0.500;2022-10-31T11:08:25;8;8;
49462;PMS5003;35357;51.722;0.500;2022-10-31T11:10:58;6;6;
49462;PMS5003;35357;51.722;0.500;2022-10-31T11:13:28;7;6;
49462;PMS5003;35357;51.722;0.500;2022-10-31T11:15:57;7;6;
49462;PMS5003;35357;51.722;0.500;2022-10-31T11:18:27;7;7;
49462;PMS5003;35357;51.722;0.500;2022-10-31T11:20:57;7;7;
49462;PMS5003;35357;51.722;0.500;2022-10-31T11:23:27;5;4;
49462;PMS5003;35357;51.722;0.500;2022-10-31T11:25:56;7;7;
49462;PMS5003;35357;51.722;0.500;2022-10-31T11:28:25;7;7;
49462;PMS5003;35357;51.722;0.500;2022-10-31T11:30:54;8;7;
49462;PMS5003;35357;51.722;0.500;2022-10-31T11:33:25;6;6;
49462;PMS5003;35357;51.722;0.500;2022-10-31T11:35:55;7;6;
49462;PMS5003;35357;51.722;0.500;2022-10-31T11:38:24;6;6;
49462;PMS5003;35357;51.722;0.500;2022-10-31T11:40:57;8;8;
49462;PMS5003;35357;51.722;0.500;2022-10-31T11:43:27;7;7;
49462;PMS5003;35357;51.722;0.500;2022-10-31T11:45:54;4;4;
49462;PMS5003;35357;51.722;0.500;2022-10-31T11:48:23;4;4;
49462;PMS5003;35357;51.722;0.500;2022-10-31T11:50:52;6;5;
49462;PMS5003;35357;51.722;0.500;2022-10-31T11:53:24;6;5;
49462;PMS5003;35357;51.722;0.500;2022-10-31T11:56:12;5;5;
49462;PMS5003;35357;51.722;0.500;2022-10-31T11:58:41;6;6;
49462;PMS5003;35357;51.722;0.500;2022-10-31T12:01:21;5;5;
49462;PMS5003;35357;51.722;0.500;2022-10-31T12:03:53;6;5;
49462;PMS5003;35357;51.722;0.500;2022-10-31T12:06:28;4;4;
49462;PMS5003;35357;51.722;0.500;2022-10-31T12:09:00;5;5;
49462;PMS5003;35357;51.722;0.500;2022-10-31T12:11:32;5;5;
49462;PMS5003;35357;51.722;0.500;2022-10-31T12:14:14;4;4;
49462;PMS5003;35357;51.722;0.500;2022-10-31T12:17:03;6;5;
49462;PMS5003;35357;51.722;0.500;2022-10-31T12:19:36;5;5;
49462;PMS5003;35357;51.722;0.500;2022-10-31T12:22:11;3;3;
49462;PMS5003;35357;51.722;0.500;2022-10-31T12:24:48;6;5;
49462;PMS5003;35357;51.722;0.500;2022-10-31T12:27:29;5;5;
49462;PMS5003;35357;51.722;0.500;2022-10-31T12:30:11;5;5;
49462;PMS5003;35357;51.722;0.500;2022-10-31T12:32:51;6;6;
49462;PMS5003;35357;51.722;0.500;2022-10-31T12:35:32;3;3;
49462;PMS5003;35357;51.722;0.500;2022-10-31T12:40:20;4;4;
49462;PMS5003;35357;51.722;0.500;2022-10-31T12:43:08;4;4;
49462;PMS5003;35357;51.722;0.500;2022-10-31T12:45:51;3;3;
49462;PMS5003;35357;51.722;0.500;2022-10-31T12:48:43;4;4;
49462;PMS5003;35357;51.722;0.500;2022-10-31T12:51:24;2;2;
49462;PMS5003;35357;51.722;0.500;2022-10-31T12:54:38;3;3;
49462;PMS5003;35357;51.722;0.500;2022-10-31T12:57:17;1;1;
49462;PMS5003;35357;51.722;0.500;2022-10-31T12:59:50;3;3;
49462;PMS5003;35357;51.722;0.500;2022-10-31T13:02:24;3;3;
49462;PMS5003;35357;51.722;0.500;2022-10-31T13:04:56;1;1;
49462;PMS5003;35357;51.722;0.500;2022-10-31T13:07:28;3;3;
49462;PMS5003;35357;51.722;0.500;2022-10-31T13:10:01;4;4;
49462;PMS5003;35357;51.722;0.500;2022-10-31T13:12:33;2;2;
49462;PMS5003;35357;51.722;0.500;2022-10-31T13:15:03;3;3;
49462;PMS5003;35357;51.722;0.500;2022-10-31T13:17:39;3;2;
49462;PMS5003;35357;51.722;0.500;2022-10-31T13:20:22;3;3;
49462;PMS5003;35357;51.722;0.500;2022-10-31T13:22:54;2;1;
49462;PMS5003;35357;51.722;0.500;2022-10-31T13:25:25;4;4;
49462;PMS5003;35357;51.722;0.500;2022-10-31T13:27:59;3;3;
49462;PMS5003;35357;51.722;0.500;2022-10-31T13:30:29;3;3;
49462;PMS5003;35357;51.722;0.500;2022-10-31T13:33:01;5;5;
49462;PMS5003;35357;51.722;0.500;2022-10-31T13:35:35;3;3;
49462;PMS5003;35357;51.722;0.500;2022-10-31T13:38:11;3;3;
49462;PMS5003;35357;51.722;0.500;2022-10-31T13:40:50;5;5;
49462;PMS5003;35357;51.722;0.500;2022-10-31T13:43:25;3;3;
49462;PMS5003;35357;51.722;0.500;2022-10-31T13:45:57;3;3;
49462;PMS5003;35357;51.722;0.500;2022-10-31T13:48:34;2;2;
49462;PMS5003;35357;51.722;0.500;2022-10-31T13:51:05;2;2;
49462;PMS5003;35357;51.722;0.500;2022-10-31T13:53:35;2;1;
49462;PMS5003;35357;51.722;0.500;2022-10-31T13:56:09;3;3;
49462;PMS5003;35357;51.722;0.500;2022-10-31T13:58:42;3;2;
49462;PMS5003;35357;51.722;0.500;2022-10-31T14:01:23;3;3;
49462;PMS5003;35357;51.722;0.500;2022-10-31T14:03:56;4;4;
49462;PMS5003;35357;51.722;0.500;2022-10-31T14:06:35;4;4;
49462;PMS5003;35357;51.722;0.500;2022-10-31T14:09:14;3;3;
49462;PMS5003;35357;51.722;0.500;2022-10-31T14:11:48;4;4;
49462;PMS5003;35357;51.722;0.500;2022-10-31T14:14:17;5;5;
49462;PMS5003;35357;51.722;0.500;2022-10-31T14:16:52;6;6;
49462;PMS5003;35357;51.722;0.500;2022-10-31T14:19:21;7;6;
49462;PMS5003;35357;51.722;0.500;2022-10-31T14:21:49;6;5;
49462;PMS5003;35357;51.722;0.500;2022-10-31T14:24:30;6;5;
49462;PMS5003;35357;51.722;0.500;2022-10-31T14:27:00;5;4;
49462;PMS5003;35357;51.722;0.500;2022-10-31T14:29:30;5;4;
49462;PMS5003;35357;51.722;0.500;2022-10-31T14:32:01;4;4;
49462;PMS5003;35357;51.722;0.500;2022-10-31T14:34:34;4;3;
49462;PMS5003;35357;51.722;0.500;2022-10-31T14:37:10;3;3;
49462;PMS5003;35357;51.722;0.500;2022-10-31T14:40:00;3;3;
49462;PMS5003;35357;51.722;0.500;2022-10-31T14:42:40;5;5;
49462;PMS5003;35357;51.722;0.500;2022-10-31T14:45:23;4;4;
49462;PMS5003;35357;51.722;0.500;2022-10-31T14:47:59;3;3;
49462;PMS5003;35357;51.722;0.500;2022-10-31T14:50:38;3;3;
49462;PMS5003;35357;51.722;0.500;2022-10-31T14:53:12;3;2;
49462;PMS5003;35357;51.722;0.500;2022-10-31T14:55:45;7;7;
49462;PMS5003;35357;51.722;0.500;2022-10-31T14:58:17;5;5;
49462;PMS5003;35357;51.722;0.500;2022-10-31T15:00:48;3;3;
49462;PMS5003;35357;51.722;0.500;2022-10-31T15:03:18;3;3;
49462;PMS5003;35357;51.722;0.500;2022-10-31T15:05:53;4;4;
49462;PMS5003;35357;51.722;0.500;2022-10-31T15:08:29;5;4;
49462;PMS5003;35357;51.722;0.500;2022-10-31T15:10:59;4;4;
49462;PMS5003;35357;51.722;0.500;2022-10-31T15:13:35;4;4;
49462;PMS5003;35357;51.722;0.500;2022-10-31T15:16:08;3;3;
49462;PMS5003;35357;51.722;0.500;2022-10-31T15:18:38;6;6;
49462;PMS5003;35357;51.722;0.500;2022-10-31T15:21:14;3;3;
49462;PMS5003;35357;51.722;0.500;2022-10-31T15:23:42;7;7;
49462;PMS5003;35357;51.722;0.500;2022-10-31T15:26:14;6;5;
49462;PMS5003;35357;51.722;0.500;2022-10-31T15:28:44;5;5;
49462;PMS5003;35357;51.722;0.500;2022-10-31T15:31:13;7;7;
49462;PMS5003;35357;51.722;0.500;2022-10-31T15:33:45;7;6;
49462;PMS5003;35357;51.722;0.500;2022-10-31T15:36:18;7;6;
49462;PMS5003;35357;51.722;0.500;2022-10-31T15:38:48;7;7;
49462;PMS5003;35357;51.722;0.500;2022-10-31T15:41:21;7;7;
49462;PMS5003;35357;51.722;0.500;2022-10-31T15:43:54;10;8;
49462;PMS5003;35357;51.722;0.500;2022-10-31T15:46:22;9;9;
49462;PMS5003;35357;51.722;0.500;2022-10-31T15:48:49;7;6;
49462;PMS5003;35357;51.722;0.500;2022-10-31T15:51:16;6;6;
49462;PMS5003;35357;51.722;0.500;2022-10-31T15:53:51;10;9;
49462;PMS5003;35357;51.722;0.500;2022-10-31T15:56:22;4;4;
49462;PMS5003;35357;51.722;0.500;2022-10-31T15:58:52;15;14;
49462;PMS5003;35357;51.722;0.500;2022-10-31T16:01:22;11;10;
49462;PMS5003;35357;51.722;0.500;2022-10-31T16:04:19;10;10;
49462;PMS5003;35357;51.722;0.500;2022-10-31T16:06:56;11;11;
49462;PMS5003;35357;51.722;0.500;2022-10-31T16:09:26;11;11;
49462;PMS5003;35357;51.722;0.500;2022-10-31T16:11:54;11;11;
49462;PMS5003;35357;51.722;0.500;2022-10-31T16:14:24;7;7;
49462;PMS5003;35357;51.722;0.500;2022-10-31T16:16:53;12;12;
49462;PMS5003;35357;51.722;0.500;2022-10-31T16:19:22;9;9;
49462;PMS5003;35357;51.722;0.500;2022-10-31T16:21:53;14;12;
49462;PMS5003;35357;51.722;0.500;2022-10-31T16:24:29;22;21;
49462;PMS5003;35357;51.722;0.500;2022-10-31T16:26:59;21;20;
49462;PMS5003;35357;51.722;0.500;2022-10-31T16:29:33;21;21;
49462;PMS5003;35357;51.722;0.500;2022-10-31T16:32:02;20;20;
49462;PMS5003;35357;51.722;0.500;2022-10-31T16:34:30;22;21;
49462;PMS5003;35357;51.722;0.500;2022-10-31T16:36:57;10;10;
49462;PMS5003;35357;51.722;0.500;2022-10-31T16:39:24;14;14;
49462;PMS5003;35357;51.722;0.500;2022-10-31T16:41:52;13;12;
49462;PMS5003;35357;51.722;0.500;2022-10-31T16:44:23;13;13;
49462;PMS5003;35357;51.722;0.500;2022-10-31T16:47:06;14;14;
49462;PMS5003;35357;51.722;0.500;2022-10-31T16:49:35;19;18;
49462;PMS5003;35357;51.722;0.500;2022-10-31T16:52:03;21;20;
49462;PMS5003;35357;51.722;0.500;2022-10-31T16:54:30;15;15;
49462;PMS5003;35357;51.722;0.500;2022-10-31T16:56:57;17;17;
49462;PMS5003;35357;51.722;0.500;2022-10-31T16:59:25;20;20;
49462;PMS5003;35357;51.722;0.500;2022-10-31T17:01:53;20;20;
49462;PMS5003;35357;51.722;0.500;2022-10-31T17:04:22;22;20;
49462;PMS5003;35357;51.722;0.500;2022-10-31T17:06:48;22;21;
49462;PMS5003;35357;51.722;0.500;2022-10-31T17:09:15;22;21;
49462;PMS5003;35357;51.722;0.500;2022-10-31T17:11:44;26;24;
49462;PMS5003;35357;51.722;0.500;2022-10-31T17:14:14;21;20;